Time;durP1;ratioP1;P1;durP2;ratioP2;P2;SDS_P1;SDS_P2;PMS_P1;PMS_P2;Temp;Humidity;BMP_temperature;BMP_pressure;BME280_temperature;BME280_humidity;BME280_pressure;Samples;Min_cycle;Max_cycle;Signal;HPM_P1;HPM_P2
2022/05/05 00:01:28;;;;;;;9.15;8.23;;;;;;;15.09;100.00;99930.75;5091165;28;20127;-78
2022/05/05 00:03:55;;;;;;;11.05;8.23;;;;;;;15.09;100.00;99924.59;5089642;28;20107;-78
2022/05/05 00:06:20;;;;;;;9.30;8.40;;;;;;;15.08;100.00;99922.94;5088754;28;20035;-78
2022/05/05 00:08:46;;;;;;;9.50;8.60;;;;;;;15.08;100.00;99934.41;5090658;28;20024;-78
2022/05/05 00:16:40;;;;;;;9.32;8.43;;;;;;;15.09;100.00;99925.44;5092144;28;20032;-78
2022/05/05 00:19:06;;;;;;;9.80;8.90;;;;;;;15.07;100.00;99932.78;5093997;28;20029;-78
2022/05/05 00:21:31;;;;;;;9.35;8.23;;;;;;;15.08;100.00;99923.78;5094681;28;20453;-78
2022/05/05 00:23:57;;;;;;;9.73;8.82;;;;;;;15.12;100.00;99925.13;5094434;28;20115;-78
2022/05/05 00:26:22;;;;;;;10.15;9.25;;;;;;;15.05;100.00;99923.28;5093868;28;20024;-77
2022/05/05 00:28:47;;;;;;;9.23;8.38;;;;;;;14.98;100.00;99924.91;5093993;28;20492;-78
2022/05/05 00:31:13;;;;;;;9.18;8.38;;;;;;;14.98;100.00;99916.94;5094563;28;20024;-78
2022/05/05 00:33:38;;;;;;;8.38;7.68;;;;;;;15.00;100.00;99914.97;5093141;28;20043;-78
2022/05/05 00:36:04;;;;;;;9.32;8.63;;;;;;;15.00;100.00;99905.16;5093777;28;20028;-78
2022/05/05 00:38:30;;;;;;;9.85;8.70;;;;;;;14.99;100.00;99903.50;5094055;28;20106;-78
2022/05/05 00:40:55;;;;;;;10.45;9.55;;;;;;;14.97;100.00;99900.16;5094038;28;20529;-78
2022/05/05 00:43:21;;;;;;;9.20;8.27;;;;;;;14.92;100.00;99897.16;5093533;28;20028;-78
2022/05/05 00:45:46;;;;;;;9.75;8.40;;;;;;;14.93;100.00;99898.84;5094085;28;20032;-79
2022/05/05 00:48:16;;;;;;;9.60;8.70;;;;;;;14.95;100.00;99896.84;5093398;28;20525;-78
2022/05/05 00:50:41;;;;;;;10.73;9.77;;;;;;;14.96;100.00;99893.19;5088158;28;20107;-78
2022/05/05 00:53:07;;;;;;;9.70;8.90;;;;;;;14.89;100.00;99889.53;5093248;28;20039;-78
2022/05/05 00:55:35;;;;;;;12.27;9.40;;;;;;;14.82;100.00;99896.47;5092098;28;20064;-78
2022/05/05 00:58:03;;;;;;;10.70;9.48;;;;;;;14.78;100.00;99889.84;5091095;28;20082;-77
2022/05/05 01:00:29;;;;;;;10.63;9.73;;;;;;;14.72;100.00;99885.16;5091516;28;20433;-77
2022/05/05 01:02:58;;;;;;;11.10;10.10;;;;;;;14.60;100.00;99883.78;5091700;28;20123;-78
2022/05/05 01:05:25;;;;;;;10.70;9.70;;;;;;;14.55;100.00;99883.44;5091685;28;20040;-78
2022/05/05 01:07:50;;;;;;;11.77;10.57;;;;;;;14.50;100.00;99878.59;5093839;28;20081;-78
2022/05/05 01:10:16;;;;;;;12.77;10.40;;;;;;;14.49;100.00;99882.25;5093352;28;20035;-78
2022/05/05 01:12:42;;;;;;;11.05;9.98;;;;;;;14.47;100.00;99886.91;5089325;28;20024;-78
2022/05/05 01:15:08;;;;;;;11.25;10.32;;;;;;;14.44;100.00;99889.03;5093409;28;20046;-79
2022/05/05 01:17:34;;;;;;;11.77;10.63;;;;;;;14.42;100.00;99891.03;5093974;28;20353;-78
2022/05/05 01:20:10;;;;;;;12.32;11.13;;;;;;;14.38;100.00;99890.50;5095900;28;20029;-78
2022/05/05 01:22:35;;;;;;;11.43;10.43;;;;;;;14.34;100.00;99891.78;5079005;28;20060;-78
2022/05/05 01:30:29;;;;;;;12.50;11.40;;;;;;;14.25;100.00;99888.25;5091430;28;20036;-78
2022/05/05 01:32:54;;;;;;;11.35;10.45;;;;;;;14.15;100.00;99889.34;5093465;28;20028;-78
2022/05/05 01:35:20;;;;;;;10.63;9.80;;;;;;;14.14;100.00;99888.50;5091219;28;20070;-78
2022/05/05 01:37:45;;;;;;;11.18;10.27;;;;;;;14.14;100.00;99888.50;5092154;28;20119;-78
2022/05/05 01:40:11;;;;;;;9.95;9.05;;;;;;;14.11;100.00;99880.03;5092850;28;20148;-78
2022/05/05 01:42:38;;;;;;;10.00;8.82;;;;;;;14.08;100.00;99885.69;5092598;28;20039;-78
2022/05/05 01:45:05;;;;;;;9.80;9.00;;;;;;;14.01;100.00;99884.63;5092691;28;20119;-78
2022/05/05 01:47:30;;;;;;;9.52;8.40;;;;;;;13.93;100.00;99882.75;5092935;28;20067;-78
2022/05/05 01:50:00;;;;;;;9.98;9.18;;;;;;;13.89;100.00;99886.72;5091787;28;20056;-79
2022/05/05 01:52:27;;;;;;;10.30;9.00;;;;;;;13.90;100.00;99888.38;5091284;28;20476;-79
2022/05/05 01:54:52;;;;;;;10.10;9.15;;;;;;;13.91;100.00;99884.72;5092621;28;20282;-78
2022/05/05 01:57:18;;;;;;;10.07;8.93;;;;;;;13.92;100.00;99889.03;5090594;28;20115;-78
2022/05/05 01:59:44;;;;;;;10.07;9.13;;;;;;;13.95;100.00;99891.41;5092250;28;20028;-78
2022/05/05 02:02:09;;;;;;;10.68;9.73;;;;;;;13.97;100.00;99892.06;5091817;28;20165;-77
2022/05/05 02:04:35;;;;;;;9.65;8.68;;;;;;;13.91;100.00;99887.38;5092096;28;20430;-78
2022/05/05 02:07:00;;;;;;;9.43;8.52;;;;;;;13.87;100.00;99893.97;5091721;28;20024;-78
2022/05/05 02:09:25;;;;;;;9.02;8.23;;;;;;;13.89;100.00;99897.31;5091817;28;20735;-78
2022/05/05 02:11:53;;;;;;;9.18;8.38;;;;;;;13.90;100.00;99896.34;5092180;28;20020;-78
2022/05/05 02:14:21;;;;;;;8.98;8.18;;;;;;;13.94;100.00;99900.34;5091367;28;20487;-78
2022/05/05 02:16:47;;;;;;;9.80;8.88;;;;;;;13.97;100.00;99901.84;5092184;28;20395;-78
2022/05/05 02:19:13;;;;;;;9.50;8.60;;;;;;;13.99;100.00;99898.03;5091687;28;20134;-78
2022/05/05 02:21:38;;;;;;;8.95;8.13;;;;;;;14.04;100.00;99895.75;5092197;28;20471;-79
2022/05/05 02:24:04;;;;;;;9.00;8.30;;;;;;;14.05;100.00;99897.44;5091679;28;20468;-79
2022/05/05 02:26:29;;;;;;;9.40;8.60;;;;;;;14.08;100.00;99897.09;5091751;28;20484;-77
2022/05/05 02:28:55;;;;;;;9.30;8.55;;;;;;;14.11;100.00;99894.16;5091474;28;20128;-78
2022/05/05 02:31:21;;;;;;;10.43;9.35;;;;;;;14.10;100.00;99894.28;5091445;28;20110;-78
2022/05/05 02:33:46;;;;;;;9.40;8.15;;;;;;;14.07;100.00;99895.47;5091668;28;20034;-78
2022/05/05 02:38:56;;;;;;;8.80;8.05;;;;;;;14.12;100.00;99887.03;5089323;28;20396;-78
2022/05/05 02:41:21;;;;;;;8.38;7.68;;;;;;;14.10;100.00;99884.50;5089835;28;20046;-78
2022/05/05 02:43:47;;;;;;;8.82;8.02;;;;;;;14.10;100.00;99889.81;5091398;28;20438;-78
2022/05/05 02:46:12;;;;;;;9.38;8.57;;;;;;;14.07;100.00;99890.16;5091143;28;20032;-78
2022/05/05 02:48:37;;;;;;;10.07;8.95;;;;;;;14.07;100.00;99900.75;5091309;28;20518;-78
2022/05/05 02:51:03;;;;;;;8.70;7.88;;;;;;;14.08;100.00;99893.63;5090889;28;20035;-78
2022/05/05 02:56:12;;;;;;;9.68;8.88;;;;;;;14.09;100.00;99893.47;5087294;28;20063;-78
2022/05/05 02:58:38;;;;;;;10.32;9.43;;;;;;;14.11;100.00;99885.34;5091092;28;20490;-78
2022/05/05 03:01:03;;;;;;;10.77;9.73;;;;;;;14.13;100.00;99889.53;5090906;28;20024;-78
2022/05/05 03:03:29;;;;;;;10.05;9.13;;;;;;;14.11;100.00;99894.16;5091293;28;20540;-78
2022/05/05 03:05:54;;;;;;;10.30;9.38;;;;;;;14.01;100.00;99885.47;5091049;28;20357;-78
2022/05/05 03:08:19;;;;;;;10.20;9.15;;;;;;;13.94;100.00;99889.72;5090822;28;20066;-78
2022/05/05 03:10:45;;;;;;;10.18;9.25;;;;;;;13.93;100.00;99890.72;5091087;28;20103;-78
2022/05/05 03:13:10;;;;;;;10.85;9.95;;;;;;;13.96;100.00;99885.06;5090077;28;20077;-78
2022/05/05 03:15:36;;;;;;;10.02;9.23;;;;;;;14.02;100.00;99887.09;5090743;28;20039;-78
2022/05/05 03:18:01;;;;;;;10.68;9.60;;;;;;;14.06;100.00;99883.16;5090615;28;20387;-78
2022/05/05 03:20:27;;;;;;;10.27;9.38;;;;;;;14.07;100.00;99879.53;5090864;28;20105;-79
2022/05/05 03:22:52;;;;;;;9.50;8.73;;;;;;;14.08;100.00;99881.16;5091559;28;20417;-78
2022/05/05 03:25:18;;;;;;;8.95;8.25;;;;;;;14.07;100.00;99879.53;5092092;28;20499;-78
2022/05/05 03:27:43;;;;;;;10.10;9.05;;;;;;;14.07;100.00;99884.84;5090267;28;20079;-78
2022/05/05 03:30:09;;;;;;;9.52;8.68;;;;;;;14.07;100.00;99879.53;5090322;28;20056;-78
2022/05/05 03:32:34;;;;;;;9.45;8.52;;;;;;;14.05;100.00;99873.53;5090783;28;20028;-78
2022/05/05 03:35:00;;;;;;;9.73;8.70;;;;;;;14.04;100.00;99865.72;5090461;28;20039;-78
2022/05/05 03:37:30;;;;;;;12.32;8.95;;;;;;;14.01;100.00;99863.41;5089075;28;20032;-78
2022/05/05 03:39:56;;;;;;;10.77;9.77;;;;;;;13.98;100.00;99847.78;5090673;28;20356;-78
2022/05/05 03:42:21;;;;;;;10.20;9.20;;;;;;;13.98;100.00;99835.34;5090155;28;20020;-78
2022/05/05 03:44:47;;;;;;;9.98;9.05;;;;;;;13.96;100.00;99834.66;5090202;28;20434;-78
2022/05/05 03:47:12;;;;;;;10.43;8.85;;;;;;;13.94;100.00;99831.38;5089174;28;20369;-78
2022/05/05 03:49:38;;;;;;;10.32;9.35;;;;;;;13.92;100.00;99833.34;5090453;28;20068;-78
2022/05/05 03:52:04;;;;;;;11.05;10.15;;;;;;;13.92;100.00;99838.63;5090055;28;20089;-78
2022/05/05 03:54:29;;;;;;;11.43;10.43;;;;;;;13.91;100.00;99835.16;5090274;28;20095;-78
2022/05/05 03:56:55;;;;;;;13.27;10.85;;;;;;;13.89;100.00;99831.84;5089007;28;20131;-78
2022/05/05 03:59:24;;;;;;;11.23;10.23;;;;;;;13.88;100.00;99842.59;5089921;28;20099;-78
2022/05/05 04:01:50;;;;;;;11.40;10.35;;;;;;;13.89;100.00;99846.91;5090156;28;20036;-78
2022/05/05 04:04:16;;;;;;;10.90;9.95;;;;;;;13.88;100.00;99850.56;5089825;28;20029;-78
2022/05/05 04:06:42;;;;;;;10.05;9.20;;;;;;;13.89;100.00;99854.88;5085948;28;20028;-78
2022/05/05 04:09:08;;;;;;;11.20;10.02;;;;;;;13.90;100.00;99852.06;5089724;28;20039;-78
2022/05/05 04:11:34;;;;;;;11.13;10.13;;;;;;;13.89;100.00;99855.72;5089172;28;20040;-78
2022/05/05 04:13:59;;;;;;;10.85;9.82;;;;;;;13.89;100.00;99849.56;5089727;28;20066;-78
2022/05/05 04:16:25;;;;;;;9.32;8.63;;;;;;;13.90;100.00;99856.56;5090465;28;20043;-78
2022/05/05 04:18:50;;;;;;;9.95;9.10;;;;;;;13.92;100.00;99859.84;5090174;28;20058;-78
2022/05/05 04:21:16;;;;;;;9.63;8.80;;;;;;;13.96;100.00;99853.25;5089827;28;20057;-78
2022/05/05 04:23:41;;;;;;;11.63;10.55;;;;;;;14.00;100.00;99859.91;5090251;28;20028;-78
2022/05/05 04:26:10;;;;;;;10.90;9.93;;;;;;;14.07;100.00;99858.31;5090018;28;20375;-78
2022/05/05 04:28:36;;;;;;;11.85;10.07;;;;;;;14.12;100.00;99865.78;5090026;28;20101;-78
2022/05/05 04:31:02;;;;;;;10.52;9.52;;;;;;;14.14;100.00;99875.25;5089832;28;20032;-78
2022/05/05 04:33:28;;;;;;;10.60;9.50;;;;;;;14.17;100.00;99880.25;5090260;28;20460;-78
2022/05/05 04:35:54;;;;;;;10.60;9.13;;;;;;;14.19;100.00;99877.44;5090007;28;20086;-77
2022/05/05 04:38:19;;;;;;;11.00;10.00;;;;;;;14.19;100.00;99872.13;5089821;28;20031;-77
2022/05/05 04:40:45;;;;;;;12.05;10.80;;;;;;;14.20;100.00;99879.91;5090115;28;20028;-78
2022/05/05 04:43:10;;;;;;;14.45;11.05;;;;;;;14.23;100.00;99874.31;5089412;28;20384;-77
2022/05/05 04:45:36;;;;;;;11.73;10.30;;;;;;;14.27;100.00;99878.31;5090008;28;20085;-77
2022/05/05 04:48:01;;;;;;;11.68;10.65;;;;;;;14.32;100.00;99889.28;5089635;28;20089;-77
2022/05/05 04:50:27;;;;;;;11.10;10.10;;;;;;;14.34;100.00;99897.09;5088660;28;20119;-77
2022/05/05 04:52:52;;;;;;;11.07;10.07;;;;;;;14.34;100.00;99895.25;5090140;28;20028;-78
2022/05/05 04:55:18;;;;;;;11.20;10.20;;;;;;;14.33;100.00;99906.88;5089359;28;20130;-78
2022/05/05 04:57:43;;;;;;;11.73;10.77;;;;;;;14.28;100.00;99906.50;5088139;28;20035;-77
2022/05/05 05:00:09;;;;;;;11.38;10.38;;;;;;;14.29;100.00;99915.31;5092050;28;20032;-78
2022/05/05 05:02:35;;;;;;;11.30;10.40;;;;;;;14.29;100.00;99913.50;5093180;28;20480;-78
2022/05/05 05:05:00;;;;;;;11.23;10.25;;;;;;;14.30;100.00;99914.31;5093011;28;20027;-78
2022/05/05 05:07:26;;;;;;;10.70;9.70;;;;;;;14.29;100.00;99926.75;5092987;28;20044;-78
2022/05/05 05:09:51;;;;;;;10.82;9.80;;;;;;;14.30;100.00;99925.78;5093127;28;20032;-79
2022/05/05 05:12:17;;;;;;;10.05;9.18;;;;;;;14.29;100.00;99925.94;5092691;28;20495;-78
2022/05/05 05:14:42;;;;;;;12.00;10.80;;;;;;;14.31;100.00;99930.06;5092663;28;20027;-77
2022/05/05 05:17:08;;;;;;;11.73;10.55;;;;;;;14.29;100.00;99925.94;5092247;28;20024;-75
2022/05/05 05:19:33;;;;;;;11.68;10.43;;;;;;;14.26;100.00;99921.75;5091852;28;20075;-74
2022/05/05 05:21:59;;;;;;;12.50;10.85;;;;;;;14.27;100.00;99928.72;5092233;28;20026;-74
2022/05/05 05:24:24;;;;;;;11.38;10.27;;;;;;;14.25;100.00;99920.13;5092284;28;20310;-74
2022/05/05 05:26:50;;;;;;;12.73;11.35;;;;;;;14.22;100.00;99922.22;5091733;28;20035;-74
2022/05/05 05:29:15;;;;;;;11.60;10.50;;;;;;;14.18;100.00;99924.38;5091474;28;20035;-74
2022/05/05 05:31:41;;;;;;;12.20;11.00;;;;;;;14.15;100.00;99919.38;5092326;28;20111;-74
2022/05/05 05:34:06;;;;;;;12.48;11.20;;;;;;;14.17;100.00;99912.09;4735220;28;10000338;-74
2022/05/05 05:36:32;;;;;;;12.23;11.05;;;;;;;14.20;100.00;99911.75;5090140;28;20525;-75
2022/05/05 05:38:57;;;;;;;12.65;11.52;;;;;;;14.22;100.00;99908.97;5093746;28;20130;-75
2022/05/05 05:41:23;;;;;;;12.50;11.23;;;;;;;14.25;100.00;99908.66;5089753;28;20074;-74
2022/05/05 05:43:48;;;;;;;14.18;11.80;;;;;;;14.29;100.00;99916.16;5088928;28;20085;-74
2022/05/05 05:46:14;;;;;;;12.25;10.13;;;;;;;14.34;100.00;99908.53;5088742;28;20035;-75
2022/05/05 05:48:40;;;;;;;13.77;11.68;;;;;;;14.41;100.00;99914.09;5089238;28;20039;-75
2022/05/05 05:51:06;;;;;;;13.90;11.70;;;;;;;14.44;100.00;99920.88;5091322;28;20027;-75
2022/05/05 05:53:31;;;;;;;13.13;11.88;;;;;;;14.46;100.00;99909.13;5089129;28;20043;-75
2022/05/05 05:55:57;;;;;;;15.52;11.85;;;;;;;14.51;100.00;99908.63;5088688;28;20042;-75
2022/05/05 05:58:23;;;;;;;14.10;12.55;;;;;;;14.52;100.00;99913.81;5089056;28;20063;-74
2022/05/05 06:00:48;;;;;;;12.93;11.63;;;;;;;14.55;100.00;99910.00;4736923;28;10000535;-76
2022/05/05 06:05:59;;;;;;;13.20;11.80;;;;;;;14.64;100.00;99903.72;5086777;28;20511;-77
2022/05/05 06:08:24;;;;;;;12.75;11.65;;;;;;;14.71;100.00;99910.06;4734104;28;10000308;-75
2022/05/05 06:10:50;;;;;;;13.27;11.23;;;;;;;14.81;100.00;99921.38;5088722;28;20054;-76
2022/05/05 06:13:15;;;;;;;12.55;11.43;;;;;;;14.88;100.00;99917.09;5091530;28;20110;-75
2022/05/05 06:15:40;;;;;;;13.07;11.77;;;;;;;14.98;100.00;99917.78;5091217;28;20031;-75
2022/05/05 06:18:06;;;;;;;12.95;11.65;;;;;;;15.04;100.00;99911.81;5091269;28;20036;-76
2022/05/05 06:20:32;;;;;;;12.48;11.27;;;;;;;15.12;100.00;99922.47;5091574;28;20123;-75
2022/05/05 06:22:59;;;;;;;11.95;10.85;;;;;;;15.20;100.00;99928.81;5090297;28;20039;-74
2022/05/05 06:25:24;;;;;;;12.02;10.93;;;;;;;15.28;100.00;99934.13;5091304;28;20028;-74
2022/05/05 06:27:50;;;;;;;13.20;11.32;;;;;;;15.31;100.00;99928.50;5091090;28;20048;-75
2022/05/05 06:30:16;;;;;;;10.77;9.77;;;;;;;15.31;100.00;99933.81;5090225;28;20076;-74
2022/05/05 06:32:43;;;;;;;11.95;10.75;;;;;;;15.29;100.00;99930.47;5085443;28;20032;-74
2022/05/05 06:35:10;;;;;;;11.25;10.35;;;;;;;15.31;100.00;99923.19;5090853;28;20185;-73
2022/05/05 06:37:36;;;;;;;10.90;9.90;;;;;;;15.38;100.00;99932.97;5091206;28;20135;-73
2022/05/05 06:40:01;;;;;;;11.65;10.65;;;;;;;15.44;100.00;99934.13;5090675;28;20480;-75
2022/05/05 06:42:28;;;;;;;12.02;10.23;;;;;;;15.47;100.00;99944.47;5090494;28;20038;-75
2022/05/05 06:44:53;;;;;;;11.52;10.43;;;;;;;15.52;100.00;99936.84;5090911;28;20088;-75
2022/05/05 06:47:19;;;;;;;14.13;10.35;;;;;;;15.58;100.00;99946.84;5090060;28;20032;-75
2022/05/05 06:49:44;;;;;;;11.68;10.57;;;;;;;15.60;100.00;99947.50;5090852;28;20028;-75
2022/05/05 06:52:10;;;;;;;11.73;10.68;;;;;;;15.45;100.00;99951.75;5090260;28;20032;-74
2022/05/05 06:54:35;;;;;;;11.65;10.55;;;;;;;15.45;100.00;99957.09;5091108;28;20044;-74
2022/05/05 06:57:02;;;;;;;11.77;10.57;;;;;;;15.51;100.00;99967.06;5089789;28;20502;-74
2022/05/05 06:59:27;;;;;;;11.27;10.23;;;;;;;15.54;100.00;99961.47;5090849;28;20166;-75
2022/05/05 07:01:53;;;;;;;11.75;10.75;;;;;;;15.57;100.00;99961.13;5089014;28;20024;-74
2022/05/05 07:07:04;;;;;;;12.50;10.25;;;;;;;15.68;100.00;99958.13;5090314;28;20051;-74
2022/05/05 07:12:14;;;;;;;11.32;10.27;;;;;;;15.73;100.00;99966.44;5086540;28;20426;-75
2022/05/05 07:14:39;;;;;;;11.85;10.60;;;;;;;15.78;100.00;99964.16;5090519;28;20024;-75
2022/05/05 07:17:05;;;;;;;10.90;9.98;;;;;;;15.80;100.00;99961.28;5087195;28;20035;-74
2022/05/05 07:19:30;;;;;;;12.70;11.40;;;;;;;15.86;100.00;99965.94;5090134;28;20475;-78
2022/05/05 07:21:56;;;;;;;11.48;10.38;;;;;;;15.91;100.00;99969.78;5089243;28;20023;-79
2022/05/05 07:24:21;;;;;;;11.40;10.40;;;;;;;15.99;100.00;99971.63;5089909;28;20032;-80
2022/05/05 07:26:47;;;;;;;12.40;11.23;;;;;;;16.03;100.00;99961.44;5090241;28;20028;-78
2022/05/05 07:29:14;;;;;;;12.35;11.13;;;;;;;15.88;100.00;99962.13;5084228;28;20472;-78
2022/05/05 07:31:39;;;;;;;13.20;11.88;;;;;;;15.87;100.00;99965.78;5090526;28;20118;-79
2022/05/05 07:34:06;;;;;;;14.50;11.60;;;;;;;15.92;100.00;99965.28;5089904;28;20099;-79
2022/05/05 07:36:31;;;;;;;11.63;10.13;;;;;;;16.01;100.00;99968.78;5090410;28;20433;-77
2022/05/05 07:38:56;;;;;;;12.43;11.32;;;;;;;16.00;100.00;99972.44;5090254;28;20031;-79
2022/05/05 07:41:22;;;;;;;12.23;10.98;;;;;;;16.09;100.00;99976.75;5090110;28;20679;-77
2022/05/05 07:43:50;;;;;;;12.35;11.05;;;;;;;16.20;100.00;99971.91;5090158;28;20036;-78
2022/05/05 07:46:18;;;;;;;13.93;11.32;;;;;;;16.33;100.00;99968.72;5088949;28;20024;-78
2022/05/05 07:48:44;;;;;;;12.48;10.98;;;;;;;16.37;100.00;99976.22;5085911;28;20024;-77
2022/05/05 07:51:10;;;;;;;12.18;11.00;;;;;;;16.46;100.00;99970.88;5089727;28;20089;-77
2022/05/05 07:53:35;;;;;;;11.95;10.75;;;;;;;16.56;100.00;99968.84;5090393;28;20036;-77
2022/05/05 07:56:01;;;;;;;13.18;11.88;;;;;;;16.61;100.00;99983.34;5089970;28;20115;-80
2022/05/05 07:58:27;;;;;;;13.55;11.18;;;;;;;16.63;100.00;99980.50;5088222;28;20067;-80
2022/05/05 08:00:52;;;;;;;12.07;11.07;;;;;;;16.72;100.00;99983.00;5090203;28;20028;-78
2022/05/05 08:03:18;;;;;;;13.27;10.77;;;;;;;16.83;100.00;99987.13;5084323;28;20312;-77
2022/05/05 08:05:44;;;;;;;12.18;11.00;;;;;;;16.87;100.00;99992.94;5078863;28;20060;-76
2022/05/05 08:08:09;;;;;;;14.07;12.52;;;;;;;16.87;100.00;99998.25;5075723;28;20833;-77
2022/05/05 08:10:35;;;;;;;13.68;11.77;;;;;;;16.85;100.00;99994.94;5076189;28;20570;-78
2022/05/05 08:13:00;;;;;;;13.20;11.95;;;;;;;16.92;100.00;100002.06;5075297;28;20040;-79
2022/05/05 08:15:26;;;;;;;14.25;12.85;;;;;;;16.97;100.00;99990.88;5075505;28;20047;-77
2022/05/05 08:17:52;;;;;;;13.68;12.27;;;;;;;17.02;100.00;100002.69;5075198;28;20127;-79
2022/05/05 08:20:17;;;;;;;13.85;12.45;;;;;;;17.11;100.00;100006.16;5075887;28;20997;-79
2022/05/05 08:22:43;;;;;;;15.05;12.65;;;;;;;17.18;100.00;100018.63;5073680;28;20165;-78
2022/05/05 08:30:38;;;;;;;14.98;13.40;;;;;;;17.23;100.00;100003.94;5075431;28;20061;-75
2022/05/05 08:33:04;;;;;;;14.77;13.25;;;;;;;17.24;100.00;100003.78;5073946;28;20053;-75
2022/05/05 08:35:30;;;;;;;14.27;12.95;;;;;;;17.20;100.00;100011.28;5078795;28;20032;-76
2022/05/05 08:37:56;;;;;;;14.65;12.85;;;;;;;17.26;100.00;100014.28;5078978;28;20028;-76
2022/05/05 08:40:23;;;;;;;13.85;12.02;;;;;;;17.32;100.00;100008.25;5077455;28;20111;-76
2022/05/05 08:42:49;;;;;;;14.65;13.35;;;;;;;17.33;100.00;100016.03;5077235;28;20688;-76
2022/05/05 08:45:14;;;;;;;15.07;12.82;;;;;;;17.27;100.00;100008.72;5061845;28;20064;-77
2022/05/05 08:47:42;;;;;;;13.15;11.90;;;;;;;17.25;100.00;100008.09;5080040;28;20044;-76
2022/05/05 08:50:10;;;;;;;13.85;12.45;;;;;;;17.43;100.00;100016.69;5079634;28;20054;-77
2022/05/05 08:52:42;;;;;;;12.98;11.70;;;;;;;17.44;100.00;100018.31;5077704;28;20131;-77
2022/05/05 08:55:13;;;;;;;14.60;12.40;;;;;;;17.56;100.00;100011.56;5079107;28;20036;-76
2022/05/05 08:57:39;;;;;;;13.23;11.93;;;;;;;17.58;100.00;100014.91;5079683;28;20040;-76
2022/05/05 09:00:05;;;;;;;12.90;11.45;;;;;;;17.57;100.00;100017.75;5078815;28;20372;-76
2022/05/05 09:02:31;;;;;;;11.85;10.77;;;;;;;17.63;100.00;100017.06;5077193;28;20035;-76
2022/05/05 09:04:56;;;;;;;16.40;11.07;;;;;;;17.54;100.00;100018.94;5079117;28;20039;-75
2022/05/05 09:07:22;;;;;;;12.98;11.60;;;;;;;17.71;100.00;100024.19;5078492;28;20047;-76
2022/05/05 09:09:49;;;;;;;12.68;11.38;;;;;;;17.83;100.00;100023.63;5077607;28;20089;-77
2022/05/05 09:12:18;;;;;;;12.90;11.63;;;;;;;17.88;100.00;100025.75;5077716;28;20039;-74
2022/05/05 09:14:52;;;;;;;12.80;11.45;;;;;;;17.93;100.00;100024.19;5077988;28;20039;-77
2022/05/05 09:17:20;;;;;;;11.20;10.10;;;;;;;17.97;100.00;100024.66;5078861;28;20036;-76
2022/05/05 09:19:56;;;;;;;11.35;10.25;;;;;;;18.06;100.00;100028.94;5079298;28;20147;-76
2022/05/05 09:22:25;;;;;;;11.00;9.90;;;;;;;17.89;100.00;100020.22;5076633;28;20694;-76
2022/05/05 09:24:53;;;;;;;9.98;9.07;;;;;;;18.07;100.00;100024.44;5077940;28;20035;-76
2022/05/05 09:27:26;;;;;;;10.90;9.32;;;;;;;18.28;100.00;100017.38;5077982;28;20048;-76
2022/05/05 09:30:09;;;;;;;9.85;8.88;;;;;;;18.33;100.00;100019.50;5078742;28;20044;-76
2022/05/05 09:32:42;;;;;;;9.95;8.98;;;;;;;18.25;100.00;100020.44;5077060;28;20488;-77
2022/05/05 09:35:16;;;;;;;8.75;7.82;;;;;;;18.23;100.00;100018.94;5077353;28;20113;-75
2022/05/05 09:37:44;;;;;;;8.82;7.53;;;;;;;18.04;100.00;100016.75;5078559;28;20028;-75
2022/05/05 09:40:12;;;;;;;8.88;7.97;;;;;;;18.16;100.00;100018.84;5077913;28;20040;-76
2022/05/05 09:42:41;;;;;;;9.10;8.20;;;;;;;18.28;100.00;100022.72;5074078;28;20036;-75
2022/05/05 09:45:29;;;;;;;7.68;7.07;;;;;;;18.20;100.00;100025.47;5076199;28;20135;-75
2022/05/05 09:48:03;;;;;;;8.77;7.97;;;;;;;18.13;100.00;100032.56;5078529;28;20043;-77
2022/05/05 09:50:33;;;;;;;10.68;8.27;;;;;;;18.05;100.00;100032.63;5078413;28;20193;-77
2022/05/05 09:58:38;;;;;;;9.07;8.27;;;;;;;17.84;100.00;100019.09;5077202;28;20036;-76
2022/05/05 10:01:13;;;;;;;;;;;;;;;17.80;100.00;100028.47;5078590;28;20040;-76
2022/05/05 10:04:00;;;;;;;8.43;7.72;;;;;;;17.81;100.00;100024.78;5073593;28;19963;-76
2022/05/05 10:06:42;;;;;;;10.13;9.23;;;;;;;17.94;100.00;100030.38;5077560;28;20039;-76
2022/05/05 10:09:10;;;;;;;9.93;9.02;;;;;;;17.85;100.00;100026.06;5077814;28;20045;-75
2022/05/05 10:11:36;;;;;;;9.27;8.40;;;;;;;17.79;100.00;100021.47;5078122;28;20645;-75
2022/05/05 10:14:04;;;;;;;10.23;9.00;;;;;;;17.85;100.00;100031.41;5073156;28;20032;-75
2022/05/05 10:16:32;;;;;;;9.80;9.00;;;;;;;17.82;100.00;100029.13;5077371;28;20036;-74
2022/05/05 10:18:58;;;;;;;11.07;9.48;;;;;;;17.83;100.00;100028.13;5077475;28;20696;-75
2022/05/05 10:21:57;;;;;;;10.82;9.32;;;;;;;17.74;100.00;100024.66;5077344;28;20697;-77
2022/05/05 10:24:38;;;;;;;10.73;9.73;;;;;;;17.64;100.00;100028.56;5074109;28;20752;-76
2022/05/05 10:27:04;;;;;;;11.13;9.95;;;;;;;17.74;100.00;100018.50;5075390;28;20484;-73
2022/05/05 10:29:41;;;;;;;9.80;8.90;;;;;;;17.73;100.00;100028.34;5077239;28;20264;-74
2022/05/05 10:32:13;;;;;;;9.90;9.00;;;;;;;17.81;100.00;100025.63;5075434;28;20728;-74
2022/05/05 10:34:45;;;;;;;10.13;9.23;;;;;;;17.82;100.00;100026.44;5075621;28;20097;-74
2022/05/05 10:37:14;;;;;;;9.70;8.90;;;;;;;17.97;100.00;100030.81;5077326;28;20048;-73
2022/05/05 10:39:49;;;;;;;9.90;8.90;;;;;;;18.16;99.26;100023.34;5076201;28;20085;-73
2022/05/05 10:42:18;;;;;;;9.93;9.10;;;;;;;18.18;98.45;100027.50;5071820;28;20084;-74
2022/05/05 10:45:16;;;;;;;10.18;9.25;;;;;;;18.36;98.51;100028.00;5074884;28;20020;-73
2022/05/05 10:50:28;;;;;;;9.73;8.75;;;;;;;18.55;98.50;100028.53;5075352;28;20093;-75
2022/05/05 10:52:55;;;;;;;10.63;9.60;;;;;;;18.58;98.04;100022.81;5073150;28;20043;-74
2022/05/05 10:55:24;;;;;;;11.35;10.23;;;;;;;18.74;96.79;100025.31;5076249;28;20035;-74
2022/05/05 10:57:49;;;;;;;10.07;9.15;;;;;;;18.81;95.46;100021.72;5073585;28;20359;-74
2022/05/05 11:00:19;;;;;;;10.23;9.40;;;;;;;18.89;93.96;100028.81;5074379;28;20061;-74
2022/05/05 11:02:58;;;;;;;10.25;8.65;;;;;;;18.94;93.25;100022.91;5073217;28;20055;-73
2022/05/05 11:05:35;;;;;;;11.07;10.05;;;;;;;19.10;91.79;100028.91;5077010;28;20123;-74
2022/05/05 11:08:19;;;;;;;10.70;9.70;;;;;;;18.99;92.51;100016.00;5076618;28;20063;-73
2022/05/05 11:13:45;;;;;;;12.18;10.98;;;;;;;18.80;92.21;100019.22;5071673;28;20044;-74
2022/05/05 11:22:14;;;;;;;11.60;10.40;;;;;;;18.70;94.41;100010.66;5076953;28;20461;-73
2022/05/05 11:24:45;;;;;;;11.23;10.18;;;;;;;18.59;93.69;100011.13;5075155;28;21085;-74
2022/05/05 11:27:15;;;;;;;11.63;10.50;;;;;;;18.61;94.34;100006.44;5075605;28;20072;-74
2022/05/05 11:29:56;;;;;;;11.10;9.85;;;;;;;18.57;94.88;99999.75;5076466;28;20210;-74
2022/05/05 11:32:29;;;;;;;11.23;10.13;;;;;;;18.54;95.68;99998.28;5072950;28;20498;-74
2022/05/05 11:34:55;;;;;;;11.80;10.70;;;;;;;18.26;94.54;99998.03;5073971;28;20070;-74
2022/05/05 11:37:20;;;;;;;11.02;10.10;;;;;;;18.05;95.88;100000.56;5074630;28;20110;-75
2022/05/05 11:39:50;;;;;;;12.48;11.20;;;;;;;18.03;95.70;99991.91;5076596;28;20446;-75
2022/05/05 11:42:15;;;;;;;13.85;11.63;;;;;;;18.19;95.41;99990.94;5073128;28;20110;-76
2022/05/05 11:44:43;;;;;;;12.93;11.77;;;;;;;18.15;96.03;99993.13;5074590;28;20032;-75
2022/05/05 11:47:20;;;;;;;15.73;12.48;;;;;;;18.22;95.51;99986.06;5074713;28;20040;-75
2022/05/05 11:49:52;;;;;;;14.02;12.63;;;;;;;18.38;95.07;99980.53;5076554;28;20073;-74
2022/05/05 11:52:25;;;;;;;14.38;12.88;;;;;;;18.37;95.84;99983.41;5072787;28;20098;-75
2022/05/05 11:54:53;;;;;;;15.10;13.60;;;;;;;18.52;95.52;99981.59;5076125;28;20127;-74
2022/05/05 11:57:38;;;;;;;17.23;14.88;;;;;;;18.76;93.79;99977.84;5075838;28;21148;-76
2022/05/05 12:02:52;;;;;;;15.68;14.10;;;;;;;19.16;90.64;99982.66;5072058;28;20043;-75
2022/05/05 12:05:18;;;;;;;14.75;13.02;;;;;;;19.09;89.43;99972.91;5074915;28;20101;-75